YEK weather

Arviat Airport
Arviat, Nunavut, Canada

Public forecast

Using degrees Celsius for public forecast. Weather courtesy of forecast.io.

Current aviation weather report (METAR) for Arviat Airport

Retrieved 2020/06/05 03:00 UTC (43 minutes ago):

CYEK 050300Z AUTO 04010KT SCT011 M01/M02 A3014 RMK WX MISG VIS MISG PCPN MISG SLP210

Aviation forecast (TAF) for Arviat Airport

Retrieved 2020-06-05 00:42 UTC (3 hours ago):

TAF CYEK 042341Z 0500/0512 FCST CNCLD DUE SENSORS INOP RMK NXT FCST BY 050600Z